sensor_id;sensor_type;location;lat;lon;timestamp;P1;durP1;ratioP1;P2;durP2;ratioP2
2049;SDS011;8478;49.208;8.806;2022-11-04T00:00:47;2.40;;;2.20;;
2049;SDS011;8478;49.208;8.806;2022-11-04T00:03:13;4.83;;;2.20;;
2049;SDS011;8478;49.208;8.806;2022-11-04T00:05:38;2.23;;;2.03;;
2049;SDS011;8478;49.208;8.806;2022-11-04T00:08:04;2.30;;;1.90;;
2049;SDS011;8478;49.208;8.806;2022-11-04T00:10:52;2.13;;;2.00;;
2049;SDS011;8478;49.208;8.806;2022-11-04T00:13:37;2.03;;;1.93;;
2049;SDS011;8478;49.208;8.806;2022-11-04T00:16:03;2.80;;;2.60;;
2049;SDS011;8478;49.208;8.806;2022-11-04T00:18:47;2.63;;;2.43;;
2049;SDS011;8478;49.208;8.806;2022-11-04T00:21:13;2.57;;;2.03;;
2049;SDS011;8478;49.208;8.806;2022-11-04T00:23:57;2.20;;;2.10;;
2049;SDS011;8478;49.208;8.806;2022-11-04T00:26:41;2.43;;;2.23;;
2049;SDS011;8478;49.208;8.806;2022-11-04T00:29:25;1.83;;;1.70;;
2049;SDS011;8478;49.208;8.806;2022-11-04T00:31:50;1.90;;;1.80;;
2049;SDS011;8478;49.208;8.806;2022-11-04T00:34:34;2.20;;;2.07;;
2049;SDS011;8478;49.208;8.806;2022-11-04T00:37:00;2.67;;;2.40;;
2049;SDS011;8478;49.208;8.806;2022-11-04T00:39:27;2.10;;;1.90;;
2049;SDS011;8478;49.208;8.806;2022-11-04T00:41:53;2.40;;;2.20;;
2049;SDS011;8478;49.208;8.806;2022-11-04T00:44:19;2.80;;;1.80;;
2049;SDS011;8478;49.208;8.806;2022-11-04T00:46:44;2.00;;;1.90;;
2049;SDS011;8478;49.208;8.806;2022-11-04T00:49:10;2.10;;;1.90;;
2049;SDS011;8478;49.208;8.806;2022-11-04T00:51:37;2.77;;;2.30;;
2049;SDS011;8478;49.208;8.806;2022-11-04T00:54:03;2.33;;;2.13;;
2049;SDS011;8478;49.208;8.806;2022-11-04T00:56:28;2.23;;;2.03;;
2049;SDS011;8478;49.208;8.806;2022-11-04T00:58:54;2.20;;;2.10;;
2049;SDS011;8478;49.208;8.806;2022-11-04T01:01:20;2.10;;;1.83;;
2049;SDS011;8478;49.208;8.806;2022-11-04T01:03:49;3.73;;;2.10;;
2049;SDS011;8478;49.208;8.806;2022-11-04T01:06:16;1.90;;;1.80;;
2049;SDS011;8478;49.208;8.806;2022-11-04T01:08:43;2.23;;;2.03;;
2049;SDS011;8478;49.208;8.806;2022-11-04T01:11:09;2.10;;;1.90;;
2049;SDS011;8478;49.208;8.806;2022-11-04T01:13:36;2.33;;;2.13;;
2049;SDS011;8478;49.208;8.806;2022-11-04T01:16:03;2.37;;;2.00;;
2049;SDS011;8478;49.208;8.806;2022-11-04T01:18:30;2.03;;;1.90;;
2049;SDS011;8478;49.208;8.806;2022-11-04T01:21:00;1.80;;;1.60;;
2049;SDS011;8478;49.208;8.806;2022-11-04T01:23:26;1.90;;;1.80;;
2049;SDS011;8478;49.208;8.806;2022-11-04T01:25:52;1.80;;;1.70;;
2049;SDS011;8478;49.208;8.806;2022-11-04T01:28:18;2.57;;;1.90;;
2049;SDS011;8478;49.208;8.806;2022-11-04T01:30:43;2.53;;;2.33;;
2049;SDS011;8478;49.208;8.806;2022-11-04T01:33:09;2.00;;;1.70;;
2049;SDS011;8478;49.208;8.806;2022-11-04T01:35:35;2.67;;;2.33;;
2049;SDS011;8478;49.208;8.806;2022-11-04T01:38:00;1.80;;;1.70;;
2049;SDS011;8478;49.208;8.806;2022-11-04T01:40:26;2.00;;;1.83;;
2049;SDS011;8478;49.208;8.806;2022-11-04T01:42:52;2.03;;;1.90;;
2049;SDS011;8478;49.208;8.806;2022-11-04T01:45:20;2.30;;;2.10;;
2049;SDS011;8478;49.208;8.806;2022-11-04T01:47:49;2.03;;;1.93;;
2049;SDS011;8478;49.208;8.806;2022-11-04T01:50:24;2.10;;;2.00;;
2049;SDS011;8478;49.208;8.806;2022-11-04T01:53:27;1.80;;;1.70;;
2049;SDS011;8478;49.208;8.806;2022-11-04T01:55:49;1.83;;;1.73;;
2049;SDS011;8478;49.208;8.806;2022-11-04T01:58:19;1.97;;;1.87;;
2049;SDS011;8478;49.208;8.806;2022-11-04T02:00:47;2.50;;;2.13;;
2049;SDS011;8478;49.208;8.806;2022-11-04T02:03:14;1.83;;;1.70;;
2049;SDS011;8478;49.208;8.806;2022-11-04T02:05:47;2.37;;;2.17;;
2049;SDS011;8478;49.208;8.806;2022-11-04T02:08:14;3.13;;;1.90;;
2049;SDS011;8478;49.208;8.806;2022-11-04T02:10:41;3.00;;;2.10;;
2049;SDS011;8478;49.208;8.806;2022-11-04T02:13:14;2.97;;;2.47;;
2049;SDS011;8478;49.208;8.806;2022-11-04T02:29:43;3.00;;;2.10;;
2049;SDS011;8478;49.208;8.806;2022-11-04T02:32:59;3.23;;;2.13;;
2049;SDS011;8478;49.208;8.806;2022-11-04T02:38:28;2.10;;;1.90;;
2049;SDS011;8478;49.208;8.806;2022-11-04T02:44:11;2.90;;;2.03;;
2049;SDS011;8478;49.208;8.806;2022-11-04T02:46:25;2.30;;;1.80;;
2049;SDS011;8478;49.208;8.806;2022-11-04T02:51:40;1.70;;;1.60;;
2049;SDS011;8478;49.208;8.806;2022-11-04T02:56:53;2.20;;;1.77;;
2049;SDS011;8478;49.208;8.806;2022-11-04T02:59:27;2.23;;;2.03;;
2049;SDS011;8478;49.208;8.806;2022-11-04T03:01:59;4.03;;;2.27;;
2049;SDS011;8478;49.208;8.806;2022-11-04T03:04:48;2.33;;;2.03;;
2049;SDS011;8478;49.208;8.806;2022-11-04T03:07:16;3.13;;;1.97;;
2049;SDS011;8478;49.208;8.806;2022-11-04T03:09:48;4.60;;;2.37;;
2049;SDS011;8478;49.208;8.806;2022-11-04T03:12:20;1.60;;;1.50;;
2049;SDS011;8478;49.208;8.806;2022-11-04T03:14:54;2.00;;;1.80;;
2049;SDS011;8478;49.208;8.806;2022-11-04T03:17:39;2.30;;;2.10;;
2049;SDS011;8478;49.208;8.806;2022-11-04T03:20:15;3.23;;;2.17;;
2049;SDS011;8478;49.208;8.806;2022-11-04T03:22:46;2.60;;;2.40;;
2049;SDS011;8478;49.208;8.806;2022-11-04T03:25:12;2.77;;;1.97;;
2049;SDS011;8478;49.208;8.806;2022-11-04T03:28:01;2.53;;;2.33;;
2049;SDS011;8478;49.208;8.806;2022-11-04T03:30:24;2.20;;;2.00;;
2049;SDS011;8478;49.208;8.806;2022-11-04T03:35:27;2.33;;;2.03;;
2049;SDS011;8478;49.208;8.806;2022-11-04T03:37:53;2.07;;;1.70;;
2049;SDS011;8478;49.208;8.806;2022-11-04T03:40:19;2.57;;;2.10;;
2049;SDS011;8478;49.208;8.806;2022-11-04T03:42:56;4.67;;;2.20;;
2049;SDS011;8478;49.208;8.806;2022-11-04T03:45:25;3.60;;;2.10;;
2049;SDS011;8478;49.208;8.806;2022-11-04T03:47:51;2.03;;;1.83;;
2049;SDS011;8478;49.208;8.806;2022-11-04T03:50:26;2.67;;;2.43;;
2049;SDS011;8478;49.208;8.806;2022-11-04T03:52:53;2.10;;;2.00;;
2049;SDS011;8478;49.208;8.806;2022-11-04T03:55:21;2.50;;;1.83;;
2049;SDS011;8478;49.208;8.806;2022-11-04T03:58:15;1.63;;;1.50;;
2049;SDS011;8478;49.208;8.806;2022-11-04T04:00:53;2.00;;;1.80;;
2049;SDS011;8478;49.208;8.806;2022-11-04T04:03:31;2.50;;;2.30;;
2049;SDS011;8478;49.208;8.806;2022-11-04T04:06:04;1.97;;;1.57;;
2049;SDS011;8478;49.208;8.806;2022-11-04T04:08:39;2.37;;;2.17;;
2049;SDS011;8478;49.208;8.806;2022-11-04T04:20:02;2.23;;;1.50;;
2049;SDS011;8478;49.208;8.806;2022-11-04T04:22:32;2.90;;;2.27;;
2049;SDS011;8478;49.208;8.806;2022-11-04T04:25:02;1.80;;;1.43;;
2049;SDS011;8478;49.208;8.806;2022-11-04T04:27:50;2.70;;;1.83;;
2049;SDS011;8478;49.208;8.806;2022-11-04T04:30:18;2.43;;;2.07;;
2049;SDS011;8478;49.208;8.806;2022-11-04T04:32:45;2.50;;;1.70;;
2049;SDS011;8478;49.208;8.806;2022-11-04T04:35:27;4.10;;;1.73;;
2049;SDS011;8478;49.208;8.806;2022-11-04T04:38:24;4.80;;;2.00;;
2049;SDS011;8478;49.208;8.806;2022-11-04T04:41:20;2.10;;;1.90;;
2049;SDS011;8478;49.208;8.806;2022-11-04T04:47:09;3.73;;;2.00;;
2049;SDS011;8478;49.208;8.806;2022-11-04T04:52:16;1.93;;;1.80;;
2049;SDS011;8478;49.208;8.806;2022-11-04T04:54:41;2.10;;;1.90;;
2049;SDS011;8478;49.208;8.806;2022-11-04T04:57:09;1.97;;;1.80;;
2049;SDS011;8478;49.208;8.806;2022-11-04T04:59:34;2.57;;;2.00;;
2049;SDS011;8478;49.208;8.806;2022-11-04T05:02:00;4.70;;;2.00;;
2049;SDS011;8478;49.208;8.806;2022-11-04T05:04:26;2.07;;;1.80;;
2049;SDS011;8478;49.208;8.806;2022-11-04T05:06:51;3.13;;;2.23;;
2049;SDS011;8478;49.208;8.806;2022-11-04T05:09:17;3.30;;;1.80;;
2049;SDS011;8478;49.208;8.806;2022-11-04T05:11:42;1.93;;;1.83;;
2049;SDS011;8478;49.208;8.806;2022-11-04T05:14:08;3.93;;;1.67;;
2049;SDS011;8478;49.208;8.806;2022-11-04T05:16:34;2.10;;;1.90;;
2049;SDS011;8478;49.208;8.806;2022-11-04T05:18:59;3.13;;;1.67;;
2049;SDS011;8478;49.208;8.806;2022-11-04T05:21:25;3.93;;;2.27;;
2049;SDS011;8478;49.208;8.806;2022-11-04T05:23:50;2.13;;;1.93;;
2049;SDS011;8478;49.208;8.806;2022-11-04T05:26:16;2.60;;;1.90;;
2049;SDS011;8478;49.208;8.806;2022-11-04T05:28:42;1.97;;;1.87;;
2049;SDS011;8478;49.208;8.806;2022-11-04T05:31:07;2.60;;;2.40;;
2049;SDS011;8478;49.208;8.806;2022-11-04T05:33:33;1.97;;;1.73;;
2049;SDS011;8478;49.208;8.806;2022-11-04T05:36:08;2.60;;;1.77;;
2049;SDS011;8478;49.208;8.806;2022-11-04T05:38:36;2.70;;;1.90;;
2049;SDS011;8478;49.208;8.806;2022-11-04T05:41:02;2.37;;;1.97;;
2049;SDS011;8478;49.208;8.806;2022-11-04T05:43:29;3.73;;;1.70;;
2049;SDS011;8478;49.208;8.806;2022-11-04T05:45:56;2.20;;;2.00;;
2049;SDS011;8478;49.208;8.806;2022-11-04T05:48:22;2.77;;;2.00;;
2049;SDS011;8478;49.208;8.806;2022-11-04T05:50:48;4.33;;;2.57;;
2049;SDS011;8478;49.208;8.806;2022-11-04T05:53:14;4.23;;;2.20;;
2049;SDS011;8478;49.208;8.806;2022-11-04T05:55:39;1.97;;;1.60;;
2049;SDS011;8478;49.208;8.806;2022-11-04T05:58:05;4.07;;;1.80;;
2049;SDS011;8478;49.208;8.806;2022-11-04T06:00:31;5.70;;;2.10;;
2049;SDS011;8478;49.208;8.806;2022-11-04T06:02:56;2.13;;;2.00;;
2049;SDS011;8478;49.208;8.806;2022-11-04T06:05:22;1.70;;;1.60;;
2049;SDS011;8478;49.208;8.806;2022-11-04T06:07:49;4.60;;;1.80;;
2049;SDS011;8478;49.208;8.806;2022-11-04T06:10:14;2.70;;;2.20;;
2049;SDS011;8478;49.208;8.806;2022-11-04T06:12:40;2.40;;;2.20;;
2049;SDS011;8478;49.208;8.806;2022-11-04T06:15:06;2.73;;;2.00;;
2049;SDS011;8478;49.208;8.806;2022-11-04T06:17:32;2.80;;;1.90;;
2049;SDS011;8478;49.208;8.806;2022-11-04T06:19:58;2.37;;;2.17;;
2049;SDS011;8478;49.208;8.806;2022-11-04T06:22:24;3.03;;;2.10;;
2049;SDS011;8478;49.208;8.806;2022-11-04T06:24:50;2.63;;;2.13;;
2049;SDS011;8478;49.208;8.806;2022-11-04T06:27:16;1.90;;;1.80;;
2049;SDS011;8478;49.208;8.806;2022-11-04T06:29:41;2.33;;;2.10;;
2049;SDS011;8478;49.208;8.806;2022-11-04T06:32:08;2.20;;;1.80;;
2049;SDS011;8478;49.208;8.806;2022-11-04T06:34:34;3.03;;;2.00;;
2049;SDS011;8478;49.208;8.806;2022-11-04T06:37:00;1.60;;;1.50;;
2049;SDS011;8478;49.208;8.806;2022-11-04T06:39:26;2.60;;;2.00;;
2049;SDS011;8478;49.208;8.806;2022-11-04T06:41:52;3.90;;;1.83;;
2049;SDS011;8478;49.208;8.806;2022-11-04T06:44:17;2.40;;;2.10;;
2049;SDS011;8478;49.208;8.806;2022-11-04T06:46:43;2.57;;;2.37;;
2049;SDS011;8478;49.208;8.806;2022-11-04T06:49:12;2.40;;;2.20;;
2049;SDS011;8478;49.208;8.806;2022-11-04T06:51:39;4.00;;;2.77;;
2049;SDS011;8478;49.208;8.806;2022-11-04T06:54:05;2.20;;;2.03;;
2049;SDS011;8478;49.208;8.806;2022-11-04T06:56:30;2.17;;;2.00;;
2049;SDS011;8478;49.208;8.806;2022-11-04T06:58:56;2.80;;;2.47;;
2049;SDS011;8478;49.208;8.806;2022-11-04T07:01:23;2.23;;;2.03;;
2049;SDS011;8478;49.208;8.806;2022-11-04T07:03:51;2.47;;;2.20;;
2049;SDS011;8478;49.208;8.806;2022-11-04T07:06:18;2.33;;;2.17;;
2049;SDS011;8478;49.208;8.806;2022-11-04T07:08:45;3.07;;;2.20;;
2049;SDS011;8478;49.208;8.806;2022-11-04T07:11:11;2.80;;;2.00;;
2049;SDS011;8478;49.208;8.806;2022-11-04T07:13:37;2.10;;;1.90;;
2049;SDS011;8478;49.208;8.806;2022-11-04T07:16:05;4.23;;;2.43;;
2049;SDS011;8478;49.208;8.806;2022-11-04T07:18:31;3.10;;;2.10;;
2049;SDS011;8478;49.208;8.806;2022-11-04T07:20:57;3.93;;;2.17;;
2049;SDS011;8478;49.208;8.806;2022-11-04T07:23:23;3.10;;;2.80;;
2049;SDS011;8478;49.208;8.806;2022-11-04T07:25:49;3.23;;;2.80;;
2049;SDS011;8478;49.208;8.806;2022-11-04T07:28:15;3.20;;;2.80;;
2049;SDS011;8478;49.208;8.806;2022-11-04T07:30:40;4.47;;;3.10;;
2049;SDS011;8478;49.208;8.806;2022-11-04T07:33:06;4.07;;;2.70;;
2049;SDS011;8478;49.208;8.806;2022-11-04T07:35:32;4.17;;;3.10;;
2049;SDS011;8478;49.208;8.806;2022-11-04T07:37:58;3.93;;;3.63;;
2049;SDS011;8478;49.208;8.806;2022-11-04T07:40:24;3.83;;;3.53;;
2049;SDS011;8478;49.208;8.806;2022-11-04T07:42:49;4.53;;;4.10;;
2049;SDS011;8478;49.208;8.806;2022-11-04T07:45:15;4.60;;;4.17;;
2049;SDS011;8478;49.208;8.806;2022-11-04T07:47:41;5.40;;;4.97;;
2049;SDS011;8478;49.208;8.806;2022-11-04T07:50:07;6.13;;;5.53;;
2049;SDS011;8478;49.208;8.806;2022-11-04T07:52:50;5.93;;;5.43;;
2049;SDS011;8478;49.208;8.806;2022-11-04T07:55:18;6.80;;;4.93;;
2049;SDS011;8478;49.208;8.806;2022-11-04T07:57:44;6.27;;;5.67;;
2049;SDS011;8478;49.208;8.806;2022-11-04T08:00:11;6.17;;;5.70;;
2049;SDS011;8478;49.208;8.806;2022-11-04T08:02:39;5.83;;;5.33;;
2049;SDS011;8478;49.208;8.806;2022-11-04T08:05:06;6.00;;;5.50;;
2049;SDS011;8478;49.208;8.806;2022-11-04T08:07:32;5.87;;;5.30;;
2049;SDS011;8478;49.208;8.806;2022-11-04T08:09:58;5.47;;;4.97;;
2049;SDS011;8478;49.208;8.806;2022-11-04T08:12:23;5.50;;;4.93;;
2049;SDS011;8478;49.208;8.806;2022-11-04T08:14:49;6.80;;;6.17;;
2049;SDS011;8478;49.208;8.806;2022-11-04T08:17:15;8.60;;;7.90;;
2049;SDS011;8478;49.208;8.806;2022-11-04T08:19:41;8.60;;;7.90;;
2049;SDS011;8478;49.208;8.806;2022-11-04T08:22:07;8.70;;;7.30;;
2049;SDS011;8478;49.208;8.806;2022-11-04T08:24:33;8.03;;;7.10;;
2049;SDS011;8478;49.208;8.806;2022-11-04T08:26:59;9.70;;;8.80;;
2049;SDS011;8478;49.208;8.806;2022-11-04T08:29:25;15.80;;;13.40;;
2049;SDS011;8478;49.208;8.806;2022-11-04T08:31:51;14.70;;;12.93;;
2049;SDS011;8478;49.208;8.806;2022-11-04T08:34:17;11.87;;;10.43;;
2049;SDS011;8478;49.208;8.806;2022-11-04T08:36:43;12.47;;;11.17;;
2049;SDS011;8478;49.208;8.806;2022-11-04T08:39:09;15.17;;;11.20;;
2049;SDS011;8478;49.208;8.806;2022-11-04T08:41:36;10.97;;;9.87;;
2049;SDS011;8478;49.208;8.806;2022-11-04T08:44:05;11.03;;;9.73;;
2049;SDS011;8478;49.208;8.806;2022-11-04T08:46:32;10.23;;;9.10;;
2049;SDS011;8478;49.208;8.806;2022-11-04T08:49:00;9.47;;;7.90;;
2049;SDS011;8478;49.208;8.806;2022-11-04T08:51:26;9.60;;;8.23;;
2049;SDS011;8478;49.208;8.806;2022-11-04T08:53:53;9.80;;;8.17;;
2049;SDS011;8478;49.208;8.806;2022-11-04T08:56:20;8.03;;;7.20;;
2049;SDS011;8478;49.208;8.806;2022-11-04T08:58:48;8.47;;;7.10;;
2049;SDS011;8478;49.208;8.806;2022-11-04T09:01:14;8.90;;;7.40;;
2049;SDS011;8478;49.208;8.806;2022-11-04T09:03:40;7.40;;;6.50;;
2049;SDS011;8478;49.208;8.806;2022-11-04T09:06:07;8.47;;;7.57;;
2049;SDS011;8478;49.208;8.806;2022-11-04T09:08:35;8.80;;;6.77;;
2049;SDS011;8478;49.208;8.806;2022-11-04T09:11:05;6.97;;;6.00;;
2049;SDS011;8478;49.208;8.806;2022-11-04T09:13:32;6.53;;;5.77;;
2049;SDS011;8478;49.208;8.806;2022-11-04T09:15:57;6.70;;;6.10;;
2049;SDS011;8478;49.208;8.806;2022-11-04T09:18:23;6.00;;;5.00;;
2049;SDS011;8478;49.208;8.806;2022-11-04T09:20:49;5.67;;;5.17;;
2049;SDS011;8478;49.208;8.806;2022-11-04T09:23:14;6.00;;;5.07;;
2049;SDS011;8478;49.208;8.806;2022-11-04T09:25:40;5.33;;;4.23;;
2049;SDS011;8478;49.208;8.806;2022-11-04T09:28:05;5.80;;;4.60;;
2049;SDS011;8478;49.208;8.806;2022-11-04T09:30:32;6.33;;;4.43;;
2049;SDS011;8478;49.208;8.806;2022-11-04T09:32:57;4.13;;;3.73;;
2049;SDS011;8478;49.208;8.806;2022-11-04T09:35:23;4.50;;;4.03;;
2049;SDS011;8478;49.208;8.806;2022-11-04T09:37:51;3.73;;;3.43;;
2049;SDS011;8478;49.208;8.806;2022-11-04T09:40:18;5.10;;;4.20;;
2049;SDS011;8478;49.208;8.806;2022-11-04T09:45:27;3.77;;;3.20;;
2049;SDS011;8478;49.208;8.806;2022-11-04T09:47:57;3.30;;;3.00;;
2049;SDS011;8478;49.208;8.806;2022-11-04T09:50:28;3.57;;;3.27;;
2049;SDS011;8478;49.208;8.806;2022-11-04T09:53:00;4.33;;;3.20;;
2049;SDS011;8478;49.208;8.806;2022-11-04T09:55:37;3.50;;;3.20;;
2049;SDS011;8478;49.208;8.806;2022-11-04T09:58:16;3.60;;;3.03;;
2049;SDS011;8478;49.208;8.806;2022-11-04T10:00:43;3.23;;;2.60;;
2049;SDS011;8478;49.208;8.806;2022-11-04T10:27:49;2.50;;;2.30;;
2049;SDS011;8478;49.208;8.806;2022-11-04T10:30:25;3.00;;;2.70;;
2049;SDS011;8478;49.208;8.806;2022-11-04T10:36:07;2.80;;;2.30;;
2049;SDS011;8478;49.208;8.806;2022-11-04T10:38:53;3.67;;;2.20;;
2049;SDS011;8478;49.208;8.806;2022-11-04T10:43:49;2.20;;;2.10;;
2049;SDS011;8478;49.208;8.806;2022-11-04T10:52:17;2.57;;;2.30;;
2049;SDS011;8478;49.208;8.806;2022-11-04T10:54:46;2.50;;;2.30;;
2049;SDS011;8478;49.208;8.806;2022-11-04T10:57:17;2.70;;;2.30;;
2049;SDS011;8478;49.208;8.806;2022-11-04T11:00:04;4.40;;;2.33;;
2049;SDS011;8478;49.208;8.806;2022-11-04T11:05:35;2.60;;;2.40;;
2049;SDS011;8478;49.208;8.806;2022-11-04T11:07:55;2.43;;;2.23;;
2049;SDS011;8478;49.208;8.806;2022-11-04T11:10:26;2.50;;;2.30;;
2049;SDS011;8478;49.208;8.806;2022-11-04T11:12:57;2.57;;;1.80;;
2049;SDS011;8478;49.208;8.806;2022-11-04T11:20:39;2.20;;;2.00;;
2049;SDS011;8478;49.208;8.806;2022-11-04T11:26:05;2.90;;;2.27;;
2049;SDS011;8478;49.208;8.806;2022-11-04T11:28:32;1.90;;;1.60;;
2049;SDS011;8478;49.208;8.806;2022-11-04T11:31:02;2.60;;;2.07;;
2049;SDS011;8478;49.208;8.806;2022-11-04T11:36:01;2.20;;;1.93;;
2049;SDS011;8478;49.208;8.806;2022-11-04T11:38:58;2.27;;;1.90;;
2049;SDS011;8478;49.208;8.806;2022-11-04T11:41:31;3.17;;;1.50;;
2049;SDS011;8478;49.208;8.806;2022-11-04T11:44:06;2.03;;;1.83;;
2049;SDS011;8478;49.208;8.806;2022-11-04T11:47:04;1.77;;;1.60;;
2049;SDS011;8478;49.208;8.806;2022-11-04T11:49:34;2.77;;;2.57;;
2049;SDS011;8478;49.208;8.806;2022-11-04T11:57:46;1.90;;;1.80;;
